sensor_id;sensor_type;location;lat;lon;timestamp;P1;durP1;ratioP1;P2;durP2;ratioP2
3831;SDS011;12460;42.662;23.288;2023-02-28T00:03:28;18.13;;;11.90;;
3831;SDS011;12460;42.662;23.288;2023-02-28T00:18:32;15.00;;;9.37;;
3831;SDS011;12460;42.662;23.288;2023-02-28T00:33:37;10.83;;;7.97;;
3831;SDS011;12460;42.662;23.288;2023-02-28T00:48:43;11.93;;;7.80;;
3831;SDS011;12460;42.662;23.288;2023-02-28T01:03:47;18.20;;;11.90;;
3831;SDS011;12460;42.662;23.288;2023-02-28T01:18:51;16.83;;;12.60;;
3831;SDS011;12460;42.662;23.288;2023-02-28T01:33:56;15.30;;;11.20;;
3831;SDS011;12460;42.662;23.288;2023-02-28T01:49:11;24.40;;;14.53;;
3831;SDS011;12460;42.662;23.288;2023-02-28T02:04:19;30.70;;;16.70;;
3831;SDS011;12460;42.662;23.288;2023-02-28T02:50:39;31.20;;;17.57;;
3831;SDS011;12460;42.662;23.288;2023-02-28T03:05:50;27.70;;;17.60;;
3831;SDS011;12460;42.662;23.288;2023-02-28T03:36:13;40.10;;;23.07;;
3831;SDS011;12460;42.662;23.288;2023-02-28T03:51:22;38.87;;;21.03;;
3831;SDS011;12460;42.662;23.288;2023-02-28T04:06:31;33.70;;;17.20;;
3831;SDS011;12460;42.662;23.288;2023-02-28T04:21:42;29.87;;;16.20;;
3831;SDS011;12460;42.662;23.288;2023-02-28T04:36:48;29.60;;;16.30;;
3831;SDS011;12460;42.662;23.288;2023-02-28T04:52:12;26.23;;;16.17;;
3831;SDS011;12460;42.662;23.288;2023-02-28T05:07:17;26.57;;;15.10;;
3831;SDS011;12460;42.662;23.288;2023-02-28T05:22:21;28.43;;;14.23;;
3831;SDS011;12460;42.662;23.288;2023-02-28T05:37:24;23.47;;;12.37;;
3831;SDS011;12460;42.662;23.288;2023-02-28T05:52:29;22.20;;;13.20;;
3831;SDS011;12460;42.662;23.288;2023-02-28T06:07:34;21.97;;;12.53;;
3831;SDS011;12460;42.662;23.288;2023-02-28T06:22:39;28.60;;;16.23;;
3831;SDS011;12460;42.662;23.288;2023-02-28T06:37:44;28.50;;;16.33;;
3831;SDS011;12460;42.662;23.288;2023-02-28T06:52:48;30.87;;;18.27;;
3831;SDS011;12460;42.662;23.288;2023-02-28T07:07:57;33.60;;;19.13;;
3831;SDS011;12460;42.662;23.288;2023-02-28T07:23:02;34.63;;;18.87;;
3831;SDS011;12460;42.662;23.288;2023-02-28T07:38:06;30.00;;;18.27;;
3831;SDS011;12460;42.662;23.288;2023-02-28T07:53:11;40.83;;;23.00;;
3831;SDS011;12460;42.662;23.288;2023-02-28T08:08:16;43.00;;;23.47;;
3831;SDS011;12460;42.662;23.288;2023-02-28T08:23:20;42.70;;;24.17;;
3831;SDS011;12460;42.662;23.288;2023-02-28T08:38:24;41.17;;;23.17;;
3831;SDS011;12460;42.662;23.288;2023-02-28T08:53:28;41.93;;;24.07;;
3831;SDS011;12460;42.662;23.288;2023-02-28T09:08:34;40.80;;;25.37;;
3831;SDS011;12460;42.662;23.288;2023-02-28T09:23:38;43.43;;;24.20;;
3831;SDS011;12460;42.662;23.288;2023-02-28T09:38:44;40.60;;;24.70;;
3831;SDS011;12460;42.662;23.288;2023-02-28T09:53:51;42.83;;;24.93;;
3831;SDS011;12460;42.662;23.288;2023-02-28T10:24:45;41.43;;;24.87;;
3831;SDS011;12460;42.662;23.288;2023-02-28T10:39:57;35.60;;;20.00;;
3831;SDS011;12460;42.662;23.288;2023-02-28T10:55:15;20.50;;;11.70;;
3831;SDS011;12460;42.662;23.288;2023-02-28T11:10:26;20.70;;;12.80;;
3831;SDS011;12460;42.662;23.288;2023-02-28T11:25:36;23.30;;;13.10;;
3831;SDS011;12460;42.662;23.288;2023-02-28T11:40:52;25.90;;;13.93;;
3831;SDS011;12460;42.662;23.288;2023-02-28T12:26:55;27.90;;;13.60;;
3831;SDS011;12460;42.662;23.288;2023-02-28T12:42:05;24.90;;;14.17;;
3831;SDS011;12460;42.662;23.288;2023-02-28T13:12:49;23.80;;;14.27;;
3831;SDS011;12460;42.662;23.288;2023-02-28T13:27:55;24.27;;;13.43;;
3831;SDS011;12460;42.662;23.288;2023-02-28T13:43:07;21.90;;;12.23;;
3831;SDS011;12460;42.662;23.288;2023-02-28T14:13:47;19.00;;;11.00;;
3831;SDS011;12460;42.662;23.288;2023-02-28T14:44:18;19.73;;;10.90;;
3831;SDS011;12460;42.662;23.288;2023-02-28T14:59:28;20.80;;;11.87;;
3831;SDS011;12460;42.662;23.288;2023-02-28T15:14:35;21.03;;;12.00;;
3831;SDS011;12460;42.662;23.288;2023-02-28T15:29:47;20.53;;;11.87;;
3831;SDS011;12460;42.662;23.288;2023-02-28T15:44:56;19.03;;;11.50;;
3831;SDS011;12460;42.662;23.288;2023-02-28T16:00:01;19.03;;;10.20;;
3831;SDS011;12460;42.662;23.288;2023-02-28T16:15:19;13.60;;;8.60;;
3831;SDS011;12460;42.662;23.288;2023-02-28T16:30:27;13.53;;;9.27;;
3831;SDS011;12460;42.662;23.288;2023-02-28T16:45:36;15.00;;;8.30;;
3831;SDS011;12460;42.662;23.288;2023-02-28T17:00:40;11.33;;;8.03;;
3831;SDS011;12460;42.662;23.288;2023-02-28T17:15:45;8.63;;;6.20;;
3831;SDS011;12460;42.662;23.288;2023-02-28T17:30:50;7.03;;;6.00;;
3831;SDS011;12460;42.662;23.288;2023-02-28T17:45:55;9.03;;;7.13;;
3831;SDS011;12460;42.662;23.288;2023-02-28T18:01:01;9.77;;;6.53;;
3831;SDS011;12460;42.662;23.288;2023-02-28T18:16:05;7.63;;;6.47;;
3831;SDS011;12460;42.662;23.288;2023-02-28T18:31:12;8.27;;;6.70;;
3831;SDS011;12460;42.662;23.288;2023-02-28T18:46:19;7.67;;;6.70;;
3831;SDS011;12460;42.662;23.288;2023-02-28T19:01:25;8.83;;;6.80;;
3831;SDS011;12460;42.662;23.288;2023-02-28T19:16:32;10.87;;;7.53;;
3831;SDS011;12460;42.662;23.288;2023-02-28T19:31:37;8.93;;;7.27;;
3831;SDS011;12460;42.662;23.288;2023-02-28T19:46:41;8.93;;;7.10;;
3831;SDS011;12460;42.662;23.288;2023-02-28T20:01:47;8.50;;;7.60;;
3831;SDS011;12460;42.662;23.288;2023-02-28T20:16:51;10.70;;;8.30;;
3831;SDS011;12460;42.662;23.288;2023-02-28T20:31:59;9.80;;;8.20;;
3831;SDS011;12460;42.662;23.288;2023-02-28T20:47:04;11.03;;;7.83;;
3831;SDS011;12460;42.662;23.288;2023-02-28T21:02:09;8.50;;;6.40;;
3831;SDS011;12460;42.662;23.288;2023-02-28T21:17:19;5.20;;;4.53;;
3831;SDS011;12460;42.662;23.288;2023-02-28T21:32:23;7.87;;;5.00;;
3831;SDS011;12460;42.662;23.288;2023-02-28T21:47:29;6.33;;;4.20;;
3831;SDS011;12460;42.662;23.288;2023-02-28T22:02:34;4.57;;;4.17;;
3831;SDS011;12460;42.662;23.288;2023-02-28T22:17:39;5.73;;;5.10;;
3831;SDS011;12460;42.662;23.288;2023-02-28T22:32:43;5.90;;;5.03;;
3831;SDS011;12460;42.662;23.288;2023-02-28T22:47:48;7.40;;;5.90;;
3831;SDS011;12460;42.662;23.288;2023-02-28T23:02:53;7.43;;;6.20;;
3831;SDS011;12460;42.662;23.288;2023-02-28T23:17:58;8.20;;;5.87;;
3831;SDS011;12460;42.662;23.288;2023-02-28T23:33:03;5.00;;;4.40;;
3831;SDS011;12460;42.662;23.288;2023-02-28T23:48:09;6.00;;;4.80;;
